Time;durP1;ratioP1;P1;durP2;ratioP2;P2;SDS_P1;SDS_P2;PMS_P1;PMS_P2;Temp;Humidity;BMP_temperature;BMP_pressure;BME280_temperature;BME280_humidity;BME280_pressure;Samples;Min_cycle;Max_cycle;Signal;HPM_P1;HPM_P2
2023/11/29 00:01:45;;;;;;;5.85;4.35;;;;;;;;;;5047730;28;20424;-78
2023/11/29 00:04:16;;;;;;;7.07;4.30;;;;;;;;;;5047574;28;20040;-78
2023/11/29 00:06:46;;;;;;;14.95;5.78;;;;;;;;;;5038320;28;20053;-78
2023/11/29 00:09:15;;;;;;;7.72;5.88;;;;;;;;;;5049329;28;20048;-78
2023/11/29 00:11:45;;;;;;;7.55;5.80;;;;;;;;;;5035155;28;20041;-78
2023/11/29 00:14:12;;;;;;;6.50;4.80;;;;;;;;;;5040229;28;20052;-78
2023/11/29 00:16:42;;;;;;;6.18;4.65;;;;;;;;;;5060535;28;20384;-78
2023/11/29 00:19:11;;;;;;;8.45;5.53;;;;;;;;;;5034797;28;20071;-78
2023/11/29 00:21:43;;;;;;;6.45;5.68;;;;;;;;;;5066158;28;20040;-78
2023/11/29 00:24:11;;;;;;;7.68;5.88;;;;;;;;;;5057598;28;20037;-78
2023/11/29 00:26:38;;;;;;;11.82;6.65;;;;;;;;;;5043304;28;20049;-78
2023/11/29 00:29:05;;;;;;;9.02;5.13;;;;;;;;;;5034348;28;20045;-78
2023/11/29 00:31:34;;;;;;;7.88;6.88;;;;;;;;;;5047294;28;20414;-78
2023/11/29 00:34:01;;;;;;;8.45;5.90;;;;;;;;;;5053507;28;20079;-78
2023/11/29 00:36:31;;;;;;;8.18;5.60;;;;;;;;;;5043088;28;20510;-78
2023/11/29 00:38:59;;;;;;;7.53;6.50;;;;;;;;;;5035417;28;20053;-78
2023/11/29 00:41:27;;;;;;;8.15;5.80;;;;;;;;;;5046983;28;20511;-78
2023/11/29 00:43:56;;;;;;;5.93;5.32;;;;;;;;;;5045274;28;20051;-78
2023/11/29 00:46:29;;;;;;;5.72;4.68;;;;;;;;;;5046061;28;20540;-78
2023/11/29 00:48:58;;;;;;;6.03;5.43;;;;;;;;;;5034876;28;20056;-78
2023/11/29 00:51:26;;;;;;;6.10;4.35;;;;;;;;;;5048907;28;20059;-78
2023/11/29 00:53:54;;;;;;;6.43;4.45;;;;;;;;;;5046566;28;20060;-78
2023/11/29 00:56:25;;;;;;;7.10;5.43;;;;;;;;;;5047672;28;20055;-78
2023/11/29 00:58:52;;;;;;;7.97;6.63;;;;;;;;;;5044081;28;20057;-78
2023/11/29 01:01:19;;;;;;;5.97;4.70;;;;;;;;;;5066635;28;20056;-78
2023/11/29 01:03:49;;;;;;;5.25;4.65;;;;;;;;;;5054548;28;20063;-78
2023/11/29 01:06:18;;;;;;;6.30;5.32;;;;;;;;;;5049112;28;20055;-78
2023/11/29 01:08:48;;;;;;;9.32;5.53;;;;;;;;;;5045722;28;20386;-78
2023/11/29 01:11:15;;;;;;;8.98;5.10;;;;;;;;;;5052112;28;20052;-78
2023/11/29 01:13:43;;;;;;;6.75;5.82;;;;;;;;;;5051646;28;20063;-78
2023/11/29 01:16:11;;;;;;;6.65;5.63;;;;;;;;;;5039896;28;20531;-78
2023/11/29 01:18:41;;;;;;;8.40;6.22;;;;;;;;;;5051413;28;20049;-78
2023/11/29 01:21:11;;;;;;;7.88;5.53;;;;;;;;;;5050657;28;20431;-78
2023/11/29 01:23:39;;;;;;;8.18;5.43;;;;;;;;;;5055820;28;20064;-78
2023/11/29 01:26:06;;;;;;;9.45;5.95;;;;;;;;;;5048906;28;20059;-78
2023/11/29 01:28:36;;;;;;;6.82;5.35;;;;;;;;;;5053792;28;20059;-78
2023/11/29 01:31:07;;;;;;;7.22;4.80;;;;;;;;;;5048554;28;20522;-78
2023/11/29 01:33:37;;;;;;;8.07;5.85;;;;;;;;;;5063357;28;20053;-78
2023/11/29 01:36:08;;;;;;;11.10;6.68;;;;;;;;;;5049282;28;20620;-78
2023/11/29 01:38:36;;;;;;;9.88;6.03;;;;;;;;;;5038221;28;20056;-78
2023/11/29 01:41:05;;;;;;;7.82;6.50;;;;;;;;;;5059517;28;20513;-78
2023/11/29 01:43:34;;;;;;;7.18;6.47;;;;;;;;;;5044937;28;20048;-78
2023/11/29 01:46:02;;;;;;;8.68;6.47;;;;;;;;;;5048561;28;20044;-78
2023/11/29 01:48:31;;;;;;;8.07;5.75;;;;;;;;;;5052923;28;20052;-78
2023/11/29 01:51:04;;;;;;;8.63;5.82;;;;;;;;;;5054001;28;20052;-78
2023/11/29 01:53:37;;;;;;;7.75;5.60;;;;;;;;;;5039693;28;20056;-78
2023/11/29 01:56:05;;;;;;;6.53;4.65;;;;;;;;;;5069185;28;20376;-78
2023/11/29 01:58:32;;;;;;;6.95;6.00;;;;;;;;;;5071076;28;20055;-78
2023/11/29 02:01:02;;;;;;;6.32;5.20;;;;;;;;;;5064191;28;20048;-78
2023/11/29 02:03:30;;;;;;;10.27;7.00;;;;;;;;;;5070002;28;20344;-78
2023/11/29 02:05:57;;;;;;;9.35;6.78;;;;;;;;;;5065891;28;20462;-78
2023/11/29 02:08:30;;;;;;;12.75;7.20;;;;;;;;;;5069958;28;20044;-78
2023/11/29 02:10:57;;;;;;;6.78;5.97;;;;;;;;;;5073710;28;20513;-78
2023/11/29 02:13:24;;;;;;;6.85;5.50;;;;;;;;;;5047504;28;20056;-78
2023/11/29 02:15:54;;;;;;;8.38;6.03;;;;;;;;;;5048324;28;20040;-78
2023/11/29 02:18:21;;;;;;;7.55;5.57;;;;;;;;;;5050158;28;20052;-78
2023/11/29 02:20:52;;;;;;;7.28;6.25;;;;;;;;;;5053837;28;20063;-78
2023/11/29 02:23:24;;;;;;;8.88;6.82;;;;;;;;;;5050823;28;20063;-77
2023/11/29 02:25:55;;;;;;;7.53;5.15;;;;;;;;;;5065401;28;20041;-77
2023/11/29 02:28:22;;;;;;;10.27;7.45;;;;;;;;;;5073553;28;20055;-77
2023/11/29 02:30:49;;;;;;;10.15;5.88;;;;;;;;;;5066907;28;20052;-77
2023/11/29 02:33:16;;;;;;;6.97;6.18;;;;;;;;;;5048972;28;20533;-77
2023/11/29 02:35:46;;;;;;;7.05;4.97;;;;;;;;;;5057035;28;20075;-77
2023/11/29 02:38:13;;;;;;;6.38;5.72;;;;;;;;;;5055664;28;20044;-77
2023/11/29 02:40:40;;;;;;;6.68;5.00;;;;;;;;;;5066368;28;20050;-78
2023/11/29 02:43:09;;;;;;;7.78;6.00;;;;;;;;;;5054210;28;20045;-77
2023/11/29 02:45:37;;;;;;;7.97;7.03;;;;;;;;;;5056184;28;20052;-77
2023/11/29 02:48:05;;;;;;;5.97;5.47;;;;;;;;;;5059953;28;20564;-77
2023/11/29 02:50:32;;;;;;;7.85;6.35;;;;;;;;;;5043894;28;20048;-77
2023/11/29 02:53:00;;;;;;;7.15;4.60;;;;;;;;;;5044258;28;20052;-77
2023/11/29 02:55:27;;;;;;;6.13;4.13;;;;;;;;;;5053336;28;20526;-77
2023/11/29 02:57:56;;;;;;;10.85;7.00;;;;;;;;;;5042619;28;20394;-77
2023/11/29 03:00:25;;;;;;;6.13;4.75;;;;;;;;;;5047516;28;20059;-77
2023/11/29 03:02:55;;;;;;;7.00;5.65;;;;;;;;;;5047986;28;20055;-77
2023/11/29 03:05:24;;;;;;;7.47;5.40;;;;;;;;;;5053226;28;20036;-77
2023/11/29 03:07:52;;;;;;;8.68;5.07;;;;;;;;;;5039372;28;20040;-77
2023/11/29 03:10:19;;;;;;;9.20;7.25;;;;;;;;;;5055011;28;20055;-77
2023/11/29 03:12:46;;;;;;;8.18;5.80;;;;;;;;;;5061199;28;20669;-77
2023/11/29 03:15:16;;;;;;;6.68;5.57;;;;;;;;;;5040718;28;20041;-77
2023/11/29 03:17:47;;;;;;;11.18;7.28;;;;;;;;;;5066162;28;20048;-77
2023/11/29 03:20:14;;;;;;;9.90;6.97;;;;;;;;;;5055351;28;20059;-77
2023/11/29 03:22:41;;;;;;;14.00;8.40;;;;;;;;;;5049946;28;20048;-77
2023/11/29 03:25:11;;;;;;;10.98;7.97;;;;;;;;;;5045228;28;20491;-77
2023/11/29 03:27:40;;;;;;;8.50;6.50;;;;;;;;;;5059114;28;20406;-77
2023/11/29 03:30:11;;;;;;;11.93;8.32;;;;;;;;;;5036106;28;20053;-77
2023/11/29 03:32:39;;;;;;;9.20;7.00;;;;;;;;;;5066242;28;20047;-77
2023/11/29 03:35:08;;;;;;;9.13;6.15;;;;;;;;;;5044026;28;20064;-77
2023/11/29 03:37:35;;;;;;;8.50;6.47;;;;;;;;;;5052230;28;20057;-77
2023/11/29 03:40:02;;;;;;;10.73;9.60;;;;;;;;;;5051572;28;20054;-77
2023/11/29 03:42:29;;;;;;;10.63;8.27;;;;;;;;;;5054682;28;20044;-77
2023/11/29 03:44:57;;;;;;;10.55;7.88;;;;;;;;;;5047460;28;20060;-77
2023/11/29 03:47:24;;;;;;;9.93;6.03;;;;;;;;;;5054256;28;20402;-77
2023/11/29 03:49:51;;;;;;;8.73;5.95;;;;;;;;;;5070502;28;20071;-77
2023/11/29 03:52:20;;;;;;;10.73;6.75;;;;;;;;;;5055600;28;20057;-77
2023/11/29 03:54:47;;;;;;;10.30;6.85;;;;;;;;;;5061319;28;20059;-77
2023/11/29 03:57:16;;;;;;;8.05;6.60;;;;;;;;;;5059740;28;20040;-77
2023/11/29 03:59:46;;;;;;;10.48;7.28;;;;;;;;;;5035402;28;20055;-77
2023/11/29 04:02:16;;;;;;;10.98;7.57;;;;;;;;;;5070827;28;20044;-77
2023/11/29 04:04:45;;;;;;;8.35;7.15;;;;;;;;;;5046784;28;20503;-77
2023/11/29 04:07:13;;;;;;;8.30;7.32;;;;;;;;;;5060226;28;20391;-77
2023/11/29 04:09:41;;;;;;;11.30;7.60;;;;;;;;;;5056694;28;20043;-77
2023/11/29 04:12:10;;;;;;;10.82;8.95;;;;;;;;;;5053024;28;20056;-77
2023/11/29 04:14:38;;;;;;;10.63;7.10;;;;;;;;;;5040072;28;20048;-77
2023/11/29 04:17:09;;;;;;;8.10;6.47;;;;;;;;;;5045668;28;20051;-77
2023/11/29 04:19:37;;;;;;;10.10;6.47;;;;;;;;;;5061932;28;20052;-77
2023/11/29 04:22:06;;;;;;;8.57;6.43;;;;;;;;;;5040354;28;20056;-77
2023/11/29 04:24:33;;;;;;;8.98;7.03;;;;;;;;;;5039947;28;20056;-77
2023/11/29 04:27:02;;;;;;;10.77;6.68;;;;;;;;;;5046000;28;20414;-77
2023/11/29 04:29:32;;;;;;;9.20;6.88;;;;;;;;;;5073098;23;20047;-77
2023/11/29 04:31:59;;;;;;;9.30;6.93;;;;;;;;;;5056280;28;20490;-77
2023/11/29 04:34:29;;;;;;;9.95;8.63;;;;;;;;;;5051353;28;20494;-77
2023/11/29 04:36:57;;;;;;;11.48;6.70;;;;;;;;;;5037604;28;20037;-77
2023/11/29 04:39:27;;;;;;;11.95;7.40;;;;;;;;;;5052754;28;20067;-77
2023/11/29 04:41:55;;;;;;;10.32;7.68;;;;;;;;;;5055566;28;20051;-77
2023/11/29 04:44:23;;;;;;;9.77;8.20;;;;;;;;;;5046753;28;20415;-77
2023/11/29 04:46:53;;;;;;;9.68;7.15;;;;;;;;;;5047897;28;20418;-77
2023/11/29 04:49:20;;;;;;;8.90;5.97;;;;;;;;;;5060499;28;20049;-79
2023/11/29 04:51:49;;;;;;;9.90;6.65;;;;;;;;;;5072707;28;20048;-79
2023/11/29 04:54:18;;;;;;;9.35;6.82;;;;;;;;;;5069491;28;20519;-79
2023/11/29 04:56:48;;;;;;;7.18;5.93;;;;;;;;;;5045828;28;20051;-79
2023/11/29 04:59:15;;;;;;;7.88;6.38;;;;;;;;;;5045280;28;20503;-79
2023/11/29 05:01:44;;;;;;;7.70;6.70;;;;;;;;;;5074652;28;20418;-79
2023/11/29 05:04:11;;;;;;;10.07;8.02;;;;;;;;;;5055065;28;20048;-79
2023/11/29 05:06:38;;;;;;;10.20;7.00;;;;;;;;;;5067897;28;20044;-79
2023/11/29 05:09:06;;;;;;;9.18;6.85;;;;;;;;;;5069401;28;20048;-79
2023/11/29 05:11:36;;;;;;;8.95;7.18;;;;;;;;;;5073562;28;20059;-79
2023/11/29 05:14:03;;;;;;;8.70;7.03;;;;;;;;;;5075408;28;20067;-79
2023/11/29 05:16:30;;;;;;;7.03;5.82;;;;;;;;;;5052748;28;20037;-79
2023/11/29 05:19:02;;;;;;;8.93;6.70;;;;;;;;;;5055533;28;20052;-79
2023/11/29 05:21:31;;;;;;;7.82;6.10;;;;;;;;;;5073081;28;20044;-79
2023/11/29 05:24:01;;;;;;;7.68;5.93;;;;;;;;;;5045279;28;20053;-79
2023/11/29 05:26:28;;;;;;;8.95;7.00;;;;;;;;;;5060828;28;20056;-79
2023/11/29 05:28:55;;;;;;;9.98;7.55;;;;;;;;;;5040222;28;20515;-80
2023/11/29 05:31:22;;;;;;;6.55;5.85;;;;;;;;;;5054092;28;20048;-80
2023/11/29 05:33:52;;;;;;;8.75;6.53;;;;;;;;;;5047799;28;20415;-80
2023/11/29 05:36:21;;;;;;;10.65;7.00;;;;;;;;;;5071940;28;20045;-80
2023/11/29 05:38:53;;;;;;;10.40;7.60;;;;;;;;;;5075004;28;20052;-80
2023/11/29 05:41:20;;;;;;;11.40;7.05;;;;;;;;;;5070628;28;20049;-80
2023/11/29 05:43:47;;;;;;;12.18;8.25;;;;;;;;;;5051835;28;20060;-80
2023/11/29 05:46:17;;;;;;;10.35;7.35;;;;;;;;;;5061289;28;20517;-80
2023/11/29 05:48:44;;;;;;;10.25;8.32;;;;;;;;;;5044840;28;20052;-80
2023/11/29 05:51:12;;;;;;;8.70;7.13;;;;;;;;;;5063674;28;20041;-80
2023/11/29 05:53:41;;;;;;;8.13;7.05;;;;;;;;;;5057405;28;20045;-80
2023/11/29 05:56:11;;;;;;;8.73;6.95;;;;;;;;;;5067287;28;20060;-80
2023/11/29 05:58:42;;;;;;;12.98;7.47;;;;;;;;;;5070420;28;20048;-80
2023/11/29 06:01:10;;;;;;;10.63;7.97;;;;;;;;;;5078019;28;20052;-80
2023/11/29 06:03:37;;;;;;;8.60;6.90;;;;;;;;;;5059603;28;20056;-80
2023/11/29 06:06:07;;;;;;;10.75;9.43;;;;;;;;;;5068627;28;20048;-80
2023/11/29 06:08:34;;;;;;;10.20;8.25;;;;;;;;;;5054912;28;20522;-80
2023/11/29 06:11:07;;;;;;;9.88;7.10;;;;;;;;;;5065073;28;20338;-80
2023/11/29 06:13:34;;;;;;;9.32;7.43;;;;;;;;;;5067477;28;20047;-80
2023/11/29 06:16:04;;;;;;;9.40;7.95;;;;;;;;;;5074135;28;20048;-80
2023/11/29 06:18:32;;;;;;;9.60;8.32;;;;;;;;;;5073774;28;20045;-80
2023/11/29 06:21:04;;;;;;;9.48;8.40;;;;;;;;;;5071258;28;20044;-80
2023/11/29 06:23:34;;;;;;;10.93;8.00;;;;;;;;;;5055996;28;20064;-80
2023/11/29 06:26:02;;;;;;;11.73;8.43;;;;;;;;;;5059408;28;20403;-80
2023/11/29 06:28:35;;;;;;;9.85;7.75;;;;;;;;;;5057523;28;20045;-80
2023/11/29 06:31:03;;;;;;;11.18;7.22;;;;;;;;;;5066556;28;20064;-80
2023/11/29 06:33:31;;;;;;;10.40;8.05;;;;;;;;;;5070655;28;20049;-80
2023/11/29 06:35:58;;;;;;;10.73;8.25;;;;;;;;;;5075108;28;20052;-80
2023/11/29 06:38:26;;;;;;;13.43;8.35;;;;;;;;;;5073958;28;20048;-80
2023/11/29 06:40:53;;;;;;;10.77;7.75;;;;;;;;;;5071208;28;20411;-80
2023/11/29 06:43:23;;;;;;;11.48;8.35;;;;;;;;;;5065256;28;20060;-80
2023/11/29 06:45:53;;;;;;;10.77;8.50;;;;;;;;;;5063551;28;20518;-80
2023/11/29 06:48:21;;;;;;;8.68;7.75;;;;;;;;;;5058432;28;20056;-79
2023/11/29 06:50:48;;;;;;;8.18;7.40;;;;;;;;;;5069068;28;20048;-80
2023/11/29 06:53:18;;;;;;;10.50;7.72;;;;;;;;;;5066606;28;20056;-79
2023/11/29 06:55:48;;;;;;;11.05;7.97;;;;;;;;;;5061252;28;20056;-79
2023/11/29 06:58:18;;;;;;;11.30;8.23;;;;;;;;;;5076354;28;20047;-79
2023/11/29 07:00:50;;;;;;;10.32;7.97;;;;;;;;;;5073364;28;20049;-79
2023/11/29 07:03:26;;;;;;;10.95;7.95;;;;;;;;;;5062053;28;20052;-79
2023/11/29 07:05:58;;;;;;;9.10;6.50;;;;;;;;;;5061582;28;20060;-80
2023/11/29 07:08:27;;;;;;;11.27;8.10;;;;;;;;;;5054457;28;20521;-80
2023/11/29 07:11:01;;;;;;;10.13;8.98;;;;;;;;;;5061189;28;20055;-80
2023/11/29 07:13:30;;;;;;;10.23;8.82;;;;;;;;;;5064074;28;20045;-80
2023/11/29 07:15:58;;;;;;;10.65;8.38;;;;;;;;;;5068206;28;20506;-80
2023/11/29 07:18:26;;;;;;;12.38;8.27;;;;;;;;;;5079066;28;20512;-80
2023/11/29 07:20:54;;;;;;;9.30;6.43;;;;;;;;;;5077663;28;20052;-80
2023/11/29 07:23:23;;;;;;;10.63;7.05;;;;;;;;;;5070907;28;20040;-80
2023/11/29 07:25:50;;;;;;;9.45;8.15;;;;;;;;;;5050451;28;20068;-79
2023/11/29 07:28:18;;;;;;;8.07;6.85;;;;;;;;;;5056028;28;20098;-79
2023/11/29 07:30:45;;;;;;;7.13;6.13;;;;;;;;;;5073257;28;20045;-80
2023/11/29 07:33:12;;;;;;;8.63;7.55;;;;;;;;;;5057448;28;20037;-80
2023/11/29 07:35:41;;;;;;;9.32;6.93;;;;;;;;;;5057958;28;20053;-80
2023/11/29 07:38:08;;;;;;;8.93;7.15;;;;;;;;;;5040755;28;20420;-80
2023/11/29 07:40:35;;;;;;;7.57;6.72;;;;;;;;;;5064476;28;20036;-80
2023/11/29 07:43:05;;;;;;;8.30;6.30;;;;;;;;;;5041863;28;20059;-80
2023/11/29 07:45:32;;;;;;;8.27;6.50;;;;;;;;;;5066468;28;20041;-79
2023/11/29 07:48:01;;;;;;;7.85;6.38;;;;;;;;;;5062051;28;20044;-79
2023/11/29 07:50:28;;;;;;;7.95;6.70;;;;;;;;;;5057003;28;20056;-79
2023/11/29 07:52:59;;;;;;;5.95;5.28;;;;;;;;;;5065667;28;20414;-79
2023/11/29 07:55:26;;;;;;;9.68;7.80;;;;;;;;;;5057914;28;20045;-79
2023/11/29 07:57:56;;;;;;;6.55;5.05;;;;;;;;;;5047091;28;20048;-79
2023/11/29 08:00:23;;;;;;;6.55;5.50;;;;;;;;;;5060346;28;20415;-79
2023/11/29 08:02:50;;;;;;;12.00;7.80;;;;;;;;;;5055538;28;20063;-79
2023/11/29 08:05:20;;;;;;;6.43;5.65;;;;;;;;;;5060167;28;20059;-79
2023/11/29 08:07:50;;;;;;;7.03;5.47;;;;;;;;;;5071261;28;20045;-79
2023/11/29 08:10:19;;;;;;;7.10;5.82;;;;;;;;;;5043093;28;20061;-79
2023/11/29 08:12:48;;;;;;;8.70;5.60;;;;;;;;;;5057122;28;20048;-79
2023/11/29 08:15:18;;;;;;;6.38;5.38;;;;;;;;;;5046944;28;20428;-79
2023/11/29 08:17:47;;;;;;;6.47;5.15;;;;;;;;;;5054190;28;20410;-79
2023/11/29 08:20:15;;;;;;;7.53;5.63;;;;;;;;;;5054604;28;20045;-79
2023/11/29 08:22:44;;;;;;;6.25;4.75;;;;;;;;;;5062708;28;20045;-79
2023/11/29 08:25:12;;;;;;;5.47;3.95;;;;;;;;;;5038080;28;20056;-79
2023/11/29 08:27:41;;;;;;;6.60;4.90;;;;;;;;;;5057111;28;20049;-79
2023/11/29 08:30:09;;;;;;;7.03;4.00;;;;;;;;;;5064863;28;20048;-79
2023/11/29 08:32:36;;;;;;;8.13;4.78;;;;;;;;;;5045693;28;20056;-79
2023/11/29 08:35:04;;;;;;;4.28;3.88;;;;;;;;;;5037797;28;20441;-80
2023/11/29 08:37:31;;;;;;;4.68;3.97;;;;;;;;;;5040688;28;20048;-80
2023/11/29 08:40:00;;;;;;;4.35;3.85;;;;;;;;;;5045426;28;20056;-80
2023/11/29 08:42:29;;;;;;;4.72;3.80;;;;;;;;;;5061530;28;20522;-79
2023/11/29 08:44:58;;;;;;;4.65;3.88;;;;;;;;;;5061037;28;20521;-80
2023/11/29 08:47:28;;;;;;;5.43;4.13;;;;;;;;;;5046615;28;20061;-80
2023/11/29 08:49:55;;;;;;;5.57;4.85;;;;;;;;;;5061582;28;20396;-80
2023/11/29 08:52:24;;;;;;;6.47;4.30;;;;;;;;;;5044006;28;20511;-80
2023/11/29 08:54:53;;;;;;;4.30;3.03;;;;;;;;;;5062276;28;20048;-80
2023/11/29 08:57:23;;;;;;;4.68;4.10;;;;;;;;;;5048004;28;20391;-80
2023/11/29 08:59:53;;;;;;;7.18;4.32;;;;;;;;;;5073268;28;20037;-80
2023/11/29 09:02:23;;;;;;;6.13;3.95;;;;;;;;;;5043846;28;20076;-80
2023/11/29 09:04:52;;;;;;;4.50;3.38;;;;;;;;;;5061761;28;20049;-80
2023/11/29 09:07:25;;;;;;;3.97;3.33;;;;;;;;;;5065670;28;20041;-80
2023/11/29 09:09:54;;;;;;;6.30;4.35;;;;;;;;;;5062398;28;20044;-80
2023/11/29 09:12:25;;;;;;;5.13;4.18;;;;;;;;;;5061649;28;20115;-80
2023/11/29 09:14:55;;;;;;;9.85;3.85;;;;;;;;;;5067421;28;20120;-80
2023/11/29 09:17:24;;;;;;;5.68;4.90;;;;;;;;;;5067707;28;20048;-80
2023/11/29 09:19:54;;;;;;;5.88;4.43;;;;;;;;;;5048466;28;20033;-81
2023/11/29 09:22:25;;;;;;;7.05;5.50;;;;;;;;;;5065703;28;20559;-81
2023/11/29 09:24:52;;;;;;;5.57;4.50;;;;;;;;;;5069671;28;20494;-80
2023/11/29 09:27:21;;;;;;;6.80;5.55;;;;;;;;;;5051993;28;20616;-80
2023/11/29 09:29:51;;;;;;;8.60;4.63;;;;;;;;;;5070817;28;20045;-80
2023/11/29 09:32:18;;;;;;;7.35;5.15;;;;;;;;;;5054293;28;20057;-80
2023/11/29 09:34:47;;;;;;;5.80;4.35;;;;;;;;;;5068508;28;20043;-80
2023/11/29 09:37:14;;;;;;;6.72;4.88;;;;;;;;;;5069093;28;20044;-80
2023/11/29 09:39:44;;;;;;;6.90;5.93;;;;;;;;;;5071337;28;20048;-80
2023/11/29 09:42:13;;;;;;;7.53;5.57;;;;;;;;;;5060887;28;20419;-80
2023/11/29 09:44:41;;;;;;;5.82;5.25;;;;;;;;;;5059950;28;20056;-79
2023/11/29 09:47:11;;;;;;;7.85;5.88;;;;;;;;;;5060463;28;20063;-79
2023/11/29 09:49:40;;;;;;;5.80;5.10;;;;;;;;;;5060287;28;20384;-79
2023/11/29 09:52:15;;;;;;;6.60;5.45;;;;;;;;;;5062709;28;20041;-79
2023/11/29 09:54:42;;;;;;;9.63;5.97;;;;;;;;;;5047760;28;20049;-79
2023/11/29 09:57:14;;;;;;;7.75;6.30;;;;;;;;;;5063192;28;20059;-79
2023/11/29 09:59:41;;;;;;;5.68;4.40;;;;;;;;;;5044508;28;20065;-79
2023/11/29 10:02:09;;;;;;;8.70;6.10;;;;;;;;;;5044602;28;20659;-79
2023/11/29 10:04:39;;;;;;;8.93;7.38;;;;;;;;;;5067497;28;20379;-79
2023/11/29 10:07:09;;;;;;;7.60;6.13;;;;;;;;;;5043490;28;20057;-80
2023/11/29 10:09:38;;;;;;;7.88;5.18;;;;;;;;;;5048925;28;20071;-79
2023/11/29 10:12:09;;;;;;;7.93;6.93;;;;;;;;;;5061644;28;20044;-79
2023/11/29 10:14:39;;;;;;;7.47;5.85;;;;;;;;;;5060592;28;20053;-79
2023/11/29 10:17:16;;;;;;;8.30;5.38;;;;;;;;;;5060400;28;20041;-79
2023/11/29 10:19:46;;;;;;;6.13;4.80;;;;;;;;;;5056390;28;20056;-79
2023/11/29 10:22:16;;;;;;;6.60;5.47;;;;;;;;;;5062463;28;20406;-79
2023/11/29 10:24:45;;;;;;;10.70;6.55;;;;;;;;;;5048231;28;20053;-79
2023/11/29 10:27:13;;;;;;;6.78;6.03;;;;;;;;;;5054823;28;20415;-79
2023/11/29 10:29:42;;;;;;;6.95;5.03;;;;;;;;;;5061804;23;20075;-82
2023/11/29 10:32:10;;;;;;;6.43;4.80;;;;;;;;;;5025672;28;20051;-81
2023/11/29 10:34:37;;;;;;;6.18;4.95;;;;;;;;;;5040750;28;20057;-82
2023/11/29 10:37:06;;;;;;;8.13;5.50;;;;;;;;;;5038916;28;20076;-81
2023/11/29 10:39:34;;;;;;;6.95;5.47;;;;;;;;;;5021498;28;20049;-81
2023/11/29 10:42:08;;;;;;;11.75;5.65;;;;;;;;;;5033936;28;20048;-81
2023/11/29 10:44:40;;;;;;;6.88;6.18;;;;;;;;;;5043013;28;20052;-81
2023/11/29 10:47:16;;;;;;;6.45;5.43;;;;;;;;;;5042606;28;20064;-81
2023/11/29 10:49:50;;;;;;;7.85;5.95;;;;;;;;;;5054272;28;20041;-82
2023/11/29 10:52:19;;;;;;;5.82;4.65;;;;;;;;;;5019844;28;20053;-81
2023/11/29 10:54:47;;;;;;;6.35;5.65;;;;;;;;;;5042540;28;20056;-81
2023/11/29 10:57:20;;;;;;;5.75;5.15;;;;;;;;;;5031741;28;20063;-82
2023/11/29 10:59:51;;;;;;;5.95;4.50;;;;;;;;;;5038649;28;20112;-82
2023/11/29 11:02:21;;;;;;;5.47;4.95;;;;;;;;;;5037708;28;20050;-82
2023/11/29 11:05:05;;;;;;;8.32;5.47;;;;;;;;;;5055892;28;20060;-82
2023/11/29 11:07:40;;;;;;;5.78;4.20;;;;;;;;;;5011728;28;20060;-81
2023/11/29 11:10:11;;;;;;;13.85;6.47;;;;;;;;;;5053696;28;20053;-81
2023/11/29 11:12:43;;;;;;;8.05;4.95;;;;;;;;;;5032390;28;20052;-81
2023/11/29 11:15:20;;;;;;;6.25;5.40;;;;;;;;;;5026018;28;20061;-82
2023/11/29 11:18:23;;;;;;;6.00;4.97;;;;;;;;;;5032093;28;20045;-82
2023/11/29 11:20:51;;;;;;;5.60;4.70;;;;;;;;;;5043557;28;20045;-82
2023/11/29 11:23:21;;;;;;;5.20;4.63;;;;;;;;;;5033676;28;20061;-82
2023/11/29 11:25:53;;;;;;;8.18;4.88;;;;;;;;;;5049936;28;20519;-80
2023/11/29 11:28:29;;;;;;;6.82;5.45;;;;;;;;;;5015134;28;20045;-81
2023/11/29 11:30:56;;;;;;;7.47;4.78;;;;;;;;;;5045124;28;20070;-81
2023/11/29 11:33:23;;;;;;;8.10;5.35;;;;;;;;;;5042019;28;20057;-81
2023/11/29 11:35:50;;;;;;;8.30;5.05;;;;;;;;;;5008463;28;20061;-81
2023/11/29 11:38:19;;;;;;;4.72;3.92;;;;;;;;;;5032601;28;20046;-81
2023/11/29 11:40:46;;;;;;;11.07;5.95;;;;;;;;;;5022985;28;20050;-81
2023/11/29 11:43:13;;;;;;;7.60;4.63;;;;;;;;;;5033187;28;20055;-81
2023/11/29 11:45:45;;;;;;;6.70;4.47;;;;;;;;;;5038448;28;20045;-81
2023/11/29 11:48:13;;;;;;;7.65;5.35;;;;;;;;;;5040287;28;20053;-81
2023/11/29 11:50:40;;;;;;;6.40;5.45;;;;;;;;;;5015759;28;20127;-80
2023/11/29 11:53:09;;;;;;;7.15;4.95;;;;;;;;;;5027233;28;20701;-80
2023/11/29 11:55:42;;;;;;;5.50;4.53;;;;;;;;;;5054308;28;20120;-80
2023/11/29 11:58:10;;;;;;;5.22;4.65;;;;;;;;;;5020785;28;20041;-80
2023/11/29 12:00:37;;;;;;;9.15;7.10;;;;;;;;;;5038432;28;20051;-81
2023/11/29 12:03:06;;;;;;;7.47;6.05;;;;;;;;;;5037173;28;20049;-81
2023/11/29 12:05:34;;;;;;;8.10;5.78;;;;;;;;;;5020418;28;20060;-80
2023/11/29 12:08:02;;;;;;;5.80;5.20;;;;;;;;;;5040444;28;20060;-81
2023/11/29 12:10:32;;;;;;;6.35;4.93;;;;;;;;;;5034401;28;20045;-80
2023/11/29 12:13:03;;;;;;;6.72;5.35;;;;;;;;;;5047962;28;20053;-81
2023/11/29 12:15:31;;;;;;;6.70;5.03;;;;;;;;;;5033894;28;20064;-80
2023/11/29 12:18:15;;;;;;;7.47;5.00;;;;;;;;;;5028364;28;20051;-81
2023/11/29 12:20:43;;;;;;;6.93;5.50;;;;;;;;;;5043998;28;20045;-81
2023/11/29 12:23:13;;;;;;;6.47;5.00;;;;;;;;;;5011657;28;20391;-81
2023/11/29 12:25:41;;;;;;;6.70;4.93;;;;;;;;;;5016480;28;20053;-80
2023/11/29 12:28:09;;;;;;;6.30;5.18;;;;;;;;;;5054260;28;20041;-81
2023/11/29 12:30:38;;;;;;;8.60;5.78;;;;;;;;;;5050898;28;20041;-81
2023/11/29 12:33:06;;;;;;;7.47;5.03;;;;;;;;;;5010744;28;20091;-81
2023/11/29 12:35:37;;;;;;;7.78;4.85;;;;;;;;;;5045015;28;20056;-81
2023/11/29 12:38:07;;;;;;;7.22;5.35;;;;;;;;;;5042873;28;20483;-80
2023/11/29 12:40:37;;;;;;;6.38;4.13;;;;;;;;;;5047049;28;20050;-80
2023/11/29 12:43:07;;;;;;;5.15;4.32;;;;;;;;;;5048299;28;20075;-81
2023/11/29 12:45:34;;;;;;;4.90;4.40;;;;;;;;;;5036892;28;20049;-81
2023/11/29 12:48:03;;;;;;;4.93;4.43;;;;;;;;;;5030306;28;20052;-80
2023/11/29 12:50:33;;;;;;;6.95;5.25;;;;;;;;;;5038163;28;20037;-81
2023/11/29 12:53:01;;;;;;;7.50;5.57;;;;;;;;;;5051588;28;20415;-80
2023/11/29 12:55:31;;;;;;;5.53;4.25;;;;;;;;;;5051700;28;20048;-80
2023/11/29 12:57:58;;;;;;;7.60;5.57;;;;;;;;;;5017932;28;20049;-81
2023/11/29 13:00:25;;;;;;;5.60;4.40;;;;;;;;;;5017697;28;20637;-80
2023/11/29 13:02:55;;;;;;;7.13;5.05;;;;;;;;;;5048453;28;20054;-80
2023/11/29 13:05:24;;;;;;;7.28;5.93;;;;;;;;;;5034566;28;20056;-80
2023/11/29 13:07:54;;;;;;;5.85;5.35;;;;;;;;;;5025468;28;20396;-80
2023/11/29 13:10:24;;;;;;;6.18;4.95;;;;;;;;;;5038774;28;20056;-81
2023/11/29 13:12:52;;;;;;;6.00;5.40;;;;;;;;;;5012096;28;20049;-81
2023/11/29 13:15:21;;;;;;;6.68;5.45;;;;;;;;;;5049398;28;20052;-81
2023/11/29 13:17:48;;;;;;;5.45;4.18;;;;;;;;;;5021789;28;20049;-81
2023/11/29 13:20:17;;;;;;;6.13;4.20;;;;;;;;;;5017641;28;20057;-80
2023/11/29 13:22:47;;;;;;;4.82;4.40;;;;;;;;;;5018882;28;20057;-80
2023/11/29 13:25:14;;;;;;;5.22;4.70;;;;;;;;;;5012095;28;20049;-80
2023/11/29 13:27:43;;;;;;;6.05;4.13;;;;;;;;;;5030595;28;20060;-80
2023/11/29 13:30:11;;;;;;;6.05;4.55;;;;;;;;;;5030864;28;20056;-81
2023/11/29 13:32:41;;;;;;;6.72;6.05;;;;;;;;;;5018536;28;20048;-81
2023/11/29 13:35:09;;;;;;;6.00;5.00;;;;;;;;;;5034994;28;20057;-81
2023/11/29 13:37:38;;;;;;;7.47;5.07;;;;;;;;;;5022165;28;20056;-81
2023/11/29 13:40:09;;;;;;;7.55;4.45;;;;;;;;;;5014867;28;20048;-80
2023/11/29 13:42:37;;;;;;;5.93;4.63;;;;;;;;;;5015496;28;20049;-80
2023/11/29 13:45:07;;;;;;;4.95;4.22;;;;;;;;;;5016507;28;20060;-80
2023/11/29 13:47:35;;;;;;;6.35;4.75;;;;;;;;;;5026517;28;20068;-80
2023/11/29 13:50:02;;;;;;;7.68;4.80;;;;;;;;;;5024423;28;20037;-80
2023/11/29 13:52:29;;;;;;;4.47;4.00;;;;;;;;;;5037034;28;20060;-80
2023/11/29 13:54:57;;;;;;;6.93;4.88;;;;;;;;;;5016160;28;20040;-81
2023/11/29 13:57:24;;;;;;;6.05;4.78;;;;;;;;;;5028812;28;20064;-80
2023/11/29 13:59:51;;;;;;;5.07;3.92;;;;;;;;;;5020431;28;20048;-80
2023/11/29 14:02:22;;;;;;;6.45;4.95;;;;;;;;;;5035947;28;20037;-80
2023/11/29 14:04:49;;;;;;;4.82;3.72;;;;;;;;;;5041552;28;20056;-80
2023/11/29 14:07:16;;;;;;;6.95;4.18;;;;;;;;;;5042421;28;20045;-81
2023/11/29 14:09:44;;;;;;;5.35;4.75;;;;;;;;;;5011143;28;20061;-81
2023/11/29 14:12:13;;;;;;;6.15;4.47;;;;;;;;;;5019262;28;20037;-80
2023/11/29 14:14:43;;;;;;;4.63;4.03;;;;;;;;;;5058517;28;20073;-80
2023/11/29 14:17:10;;;;;;;4.75;3.58;;;;;;;;;;5035803;28;20048;-81
2023/11/29 14:19:41;;;;;;;6.47;3.75;;;;;;;;;;5052590;28;20049;-81
2023/11/29 14:22:11;;;;;;;5.85;4.28;;;;;;;;;;5041056;28;20045;-81
2023/11/29 14:24:41;;;;;;;4.15;3.40;;;;;;;;;;5052003;28;20040;-80
2023/11/29 14:27:09;;;;;;;5.35;4.00;;;;;;;;;;5052187;28;20045;-81
2023/11/29 14:29:38;;;;;;;4.95;3.72;;;;;;;;;;5021894;28;20431;-81
2023/11/29 14:32:06;;;;;;;5.88;4.50;;;;;;;;;;5055164;28;20052;-81
2023/11/29 14:34:34;;;;;;;5.30;4.53;;;;;;;;;;5035903;28;20067;-80
2023/11/29 14:37:03;;;;;;;6.57;4.57;;;;;;;;;;5027054;28;20053;-81
2023/11/29 14:39:30;;;;;;;6.43;5.32;;;;;;;;;;5020089;28;20068;-81
2023/11/29 14:42:00;;;;;;;7.45;4.78;;;;;;;;;;5032650;28;20033;-81
2023/11/29 14:44:28;;;;;;;5.07;4.15;;;;;;;;;;5031714;28;20048;-81
2023/11/29 14:46:58;;;;;;;5.43;4.85;;;;;;;;;;5051847;28;20045;-80
2023/11/29 14:49:25;;;;;;;4.22;3.63;;;;;;;;;;5046045;28;20697;-82
2023/11/29 14:51:53;;;;;;;5.72;4.15;;;;;;;;;;5045876;28;20049;-81